createdAt,value
2017-07-09T00:00:01.019Z,1000.54
2017-07-09T00:01:01.062Z,1000.57
2017-07-09T00:02:01.101Z,1000.58
2017-07-09T00:03:01.140Z,1000.59
2017-07-09T00:04:01.181Z,1000.64
2017-07-09T00:05:01.221Z,1000.62
2017-07-09T00:06:01.261Z,1000.58
2017-07-09T00:07:01.301Z,1000.57
2017-07-09T00:08:01.340Z,1000.55
2017-07-09T00:09:01.383Z,1000.54
2017-07-09T00:10:01.421Z,1000.53
2017-07-09T00:11:01.462Z,1000.56
2017-07-09T00:12:01.508Z,1000.58
2017-07-09T00:13:01.542Z,1000.58
2017-07-09T00:14:01.583Z,1000.61
2017-07-09T00:15:01.623Z,1000.58
2017-07-09T00:16:01.665Z,1000.61
2017-07-09T00:17:01.702Z,1000.61
2017-07-09T00:18:01.744Z,1000.6
2017-07-09T00:19:01.784Z,1000.62
2017-07-09T00:20:01.824Z,1000.63
2017-07-09T00:21:01.864Z,1000.63
2017-07-09T00:22:01.904Z,1000.6
2017-07-09T00:23:01.945Z,1000.59
2017-07-09T00:24:01.987Z,1000.57
2017-07-09T00:25:02.024Z,1000.57
2017-07-09T00:26:02.065Z,1000.58
2017-07-09T00:27:02.105Z,1000.6
2017-07-09T00:28:02.146Z,1000.63
2017-07-09T00:29:02.185Z,1000.63
2017-07-09T00:30:02.227Z,1000.67
2017-07-09T00:31:02.267Z,1000.66
2017-07-09T00:32:02.306Z,1000.66
2017-07-09T00:33:02.346Z,1000.64
2017-07-09T00:34:02.389Z,1000.7
2017-07-09T00:35:02.428Z,1000.67
2017-07-09T00:36:02.467Z,1000.68
2017-07-09T00:37:02.508Z,1000.67
2017-07-09T00:38:02.548Z,1000.66
2017-07-09T00:39:02.587Z,1000.68
2017-07-09T00:40:02.628Z,1000.69
2017-07-09T00:41:02.671Z,1000.62
2017-07-09T00:42:02.709Z,1000.63
2017-07-09T00:43:02.749Z,1000.66
2017-07-09T00:44:02.789Z,1000.62
2017-07-09T00:45:02.829Z,1000.66
2017-07-09T00:46:02.870Z,1000.63
2017-07-09T00:47:02.908Z,1000.65
2017-07-09T00:48:02.950Z,1000.67
2017-07-09T00:49:02.988Z,1000.66
2017-07-09T00:50:03.028Z,1000.66
2017-07-09T00:51:03.069Z,1000.65
2017-07-09T00:52:03.110Z,1000.62
2017-07-09T00:53:03.152Z,1000.66
2017-07-09T00:54:03.190Z,1000.64
2017-07-09T00:55:03.231Z,1000.68
2017-07-09T00:56:03.271Z,1000.66
2017-07-09T00:57:03.312Z,1000.67
2017-07-09T00:58:03.350Z,1000.64
2017-07-09T00:59:03.391Z,1000.65
2017-07-09T01:00:03.430Z,1000.64
2017-07-09T01:01:03.470Z,1000.58
2017-07-09T01:02:03.513Z,1000.66
2017-07-09T01:03:03.551Z,1000.64
2017-07-09T01:04:03.590Z,1000.61
2017-07-09T01:05:03.631Z,1000.6
2017-07-09T01:06:03.671Z,1000.6
2017-07-09T01:07:03.711Z,1000.61
2017-07-09T01:08:03.751Z,1000.62
2017-07-09T01:09:03.792Z,1000.64
2017-07-09T01:10:03.832Z,1000.62
2017-07-09T01:11:03.871Z,1000.64
2017-07-09T01:12:03.912Z,1000.62
2017-07-09T01:13:03.952Z,1000.68
2017-07-09T01:14:03.992Z,1000.66
2017-07-09T01:15:04.034Z,1000.68
2017-07-09T01:16:04.072Z,1000.68
2017-07-09T01:17:04.112Z,1000.67
2017-07-09T01:18:04.155Z,1000.59
2017-07-09T01:19:04.194Z,1000.66
2017-07-09T01:20:04.234Z,1000.65
2017-07-09T01:21:04.275Z,1000.6
2017-07-09T01:22:04.314Z,1000.61
2017-07-09T01:23:04.353Z,1000.56
2017-07-09T01:24:04.395Z,1000.51
2017-07-09T01:25:04.437Z,1000.5
2017-07-09T01:26:04.490Z,1000.54
2017-07-09T01:27:04.517Z,1000.55
2017-07-09T01:28:04.556Z,1000.56
2017-07-09T01:29:04.597Z,1000.51
2017-07-09T01:30:04.636Z,1000.5
2017-07-09T01:31:04.677Z,1000.5
2017-07-09T01:32:04.716Z,1000.47
2017-07-09T01:33:04.757Z,1000.49
2017-07-09T01:34:04.795Z,1000.47
2017-07-09T01:35:04.837Z,1000.47
2017-07-09T01:36:04.877Z,1000.52
2017-07-09T01:37:04.919Z,1000.5
2017-07-09T01:38:04.958Z,1000.52
2017-07-09T01:39:04.998Z,1000.52
2017-07-09T01:40:05.038Z,1000.55
2017-07-09T01:41:05.078Z,1000.57
2017-07-09T01:42:05.116Z,1000.58
2017-07-09T01:43:05.158Z,1000.6
2017-07-09T01:44:05.199Z,1000.66
2017-07-09T01:45:05.238Z,1000.65
2017-07-09T01:46:05.279Z,1000.59
2017-07-09T01:47:05.319Z,1000.6
2017-07-09T01:48:05.359Z,1000.59
2017-07-09T01:49:05.399Z,1000.6
2017-07-09T01:50:05.440Z,1000.65
2017-07-09T01:51:05.480Z,1000.64
2017-07-09T01:52:05.518Z,1000.66
2017-07-09T01:53:05.547Z,1000.68
2017-07-09T01:54:05.587Z,1000.7
2017-07-09T01:55:05.628Z,1000.76
2017-07-09T01:56:05.669Z,1000.71
2017-07-09T01:57:05.707Z,1000.74
2017-07-09T01:58:05.750Z,1000.74
2017-07-09T01:59:05.789Z,1000.77
2017-07-09T02:00:05.828Z,1000.74
2017-07-09T02:01:05.870Z,1000.75
2017-07-09T02:02:05.909Z,1000.67
2017-07-09T02:03:05.949Z,1000.7
2017-07-09T02:04:05.989Z,1000.63
2017-07-09T02:05:06.030Z,1000.64
2017-07-09T02:06:06.070Z,1000.66
2017-07-09T02:07:06.110Z,1000.68
2017-07-09T02:08:06.149Z,1000.64
2017-07-09T02:09:06.191Z,1000.65
2017-07-09T02:10:06.230Z,1000.66
2017-07-09T02:11:06.271Z,1000.67
2017-07-09T02:12:06.311Z,1000.64
2017-07-09T02:13:06.351Z,1000.63
2017-07-09T02:14:06.389Z,1000.61
2017-07-09T02:15:06.431Z,1000.57
2017-07-09T02:16:06.471Z,1000.59
2017-07-09T02:17:06.511Z,1000.55
2017-07-09T02:18:06.552Z,1000.56
2017-07-09T02:19:06.592Z,1000.58
2017-07-09T02:20:06.633Z,1000.55
2017-07-09T02:21:06.672Z,1000.53
2017-07-09T02:22:06.712Z,1000.57
2017-07-09T02:23:06.752Z,1000.51
2017-07-09T02:24:06.791Z,1000.53
2017-07-09T02:25:06.835Z,1000.55
2017-07-09T02:26:06.872Z,1000.55
2017-07-09T02:27:06.912Z,1000.57
2017-07-09T02:28:06.954Z,1000.56
2017-07-09T02:29:06.993Z,1000.59
2017-07-09T02:30:07.033Z,1000.61
2017-07-09T02:31:07.075Z,1000.6
2017-07-09T02:32:07.113Z,1000.59
2017-07-09T02:33:07.153Z,1000.62
2017-07-09T02:34:07.194Z,1000.59
2017-07-09T02:35:07.233Z,1000.6
2017-07-09T02:36:07.273Z,1000.58
2017-07-09T02:37:07.313Z,1000.56
2017-07-09T02:38:07.354Z,1000.63
2017-07-09T02:39:07.395Z,1000.64
2017-07-09T02:40:07.433Z,1000.67
2017-07-09T02:41:07.474Z,1000.65
2017-07-09T02:42:07.515Z,1000.67
2017-07-09T02:43:07.554Z,1000.67
2017-07-09T02:44:07.597Z,1000.69
2017-07-09T02:45:07.634Z,1000.67
2017-07-09T02:46:07.673Z,1000.7
2017-07-09T02:47:07.714Z,1000.67
2017-07-09T02:48:07.758Z,1000.69
2017-07-09T02:49:07.793Z,1000.7
2017-07-09T02:50:07.836Z,1000.71
2017-07-09T02:51:07.873Z,1000.78
2017-07-09T02:52:07.917Z,1000.77
2017-07-09T02:53:07.955Z,1000.74
2017-07-09T02:54:07.994Z,1000.75
2017-07-09T02:55:08.036Z,1000.79
2017-07-09T02:56:08.075Z,1000.74
2017-07-09T02:57:08.115Z,1000.77
2017-07-09T02:58:08.154Z,1000.78
2017-07-09T02:59:08.195Z,1000.85
2017-07-09T03:00:08.286Z,1000.85
2017-07-09T03:01:08.274Z,1000.87
2017-07-09T03:02:08.315Z,1000.85
2017-07-09T03:03:08.353Z,1000.83
2017-07-09T03:04:08.394Z,1000.8
2017-07-09T03:05:08.433Z,1000.76
2017-07-09T03:06:08.472Z,1000.73
2017-07-09T03:07:08.513Z,1000.72
2017-07-09T03:08:08.561Z,1000.66
2017-07-09T03:09:08.594Z,1000.68
2017-07-09T03:10:08.631Z,1000.66
2017-07-09T03:11:08.673Z,1000.66
2017-07-09T03:12:08.713Z,1000.61
2017-07-09T03:13:08.752Z,1000.62
2017-07-09T03:14:08.793Z,1000.57
2017-07-09T03:15:08.836Z,1000.58
2017-07-09T03:16:08.871Z,1000.56
2017-07-09T03:17:08.912Z,1000.54
2017-07-09T03:18:08.955Z,1000.56
2017-07-09T03:19:08.993Z,1000.55
2017-07-09T03:20:09.031Z,1000.53
2017-07-09T03:21:09.071Z,1000.5
2017-07-09T03:22:09.113Z,1000.47
2017-07-09T03:23:09.151Z,1000.45
2017-07-09T03:24:09.189Z,1000.45
2017-07-09T03:25:09.231Z,1000.47
2017-07-09T03:26:09.271Z,1000.44
2017-07-09T03:27:09.310Z,1000.45
2017-07-09T03:28:09.351Z,1000.45
2017-07-09T03:29:09.390Z,1000.43
2017-07-09T03:30:09.429Z,1000.43
2017-07-09T03:31:09.471Z,1000.42
2017-07-09T03:32:09.510Z,1000.42
2017-07-09T03:33:09.552Z,1000.44
2017-07-09T03:34:09.590Z,1000.47
2017-07-09T03:35:09.630Z,1000.47
2017-07-09T03:36:09.670Z,1000.46
2017-07-09T03:37:09.709Z,1000.52
2017-07-09T03:38:09.750Z,1000.51
2017-07-09T03:39:09.791Z,1000.52
2017-07-09T03:40:09.831Z,1000.49
2017-07-09T03:41:09.871Z,1000.51
2017-07-09T03:42:09.910Z,1000.49
2017-07-09T03:43:09.951Z,1000.55
2017-07-09T03:44:09.995Z,1000.51
2017-07-09T03:45:10.032Z,1000.51
2017-07-09T03:46:10.071Z,1000.49
2017-07-09T03:47:10.111Z,1000.47
2017-07-09T03:48:10.151Z,1000.46
2017-07-09T03:49:10.190Z,1000.44
2017-07-09T03:50:10.235Z,1000.51
2017-07-09T03:51:10.272Z,1000.51
2017-07-09T03:52:10.312Z,1000.51
2017-07-09T03:53:10.352Z,1000.53
2017-07-09T03:54:10.393Z,1000.57
2017-07-09T03:55:10.433Z,1000.62
2017-07-09T03:56:10.476Z,1000.62
2017-07-09T03:57:10.515Z,1000.64
2017-07-09T03:58:10.555Z,1000.65
2017-07-09T03:59:10.597Z,1000.66
2017-07-09T04:00:10.636Z,1000.63
2017-07-09T04:01:10.677Z,1000.65
2017-07-09T04:02:10.718Z,1000.6
2017-07-09T04:03:10.760Z,1000.6
2017-07-09T04:04:10.800Z,1000.52
2017-07-09T04:05:10.839Z,1000.56
2017-07-09T04:06:10.879Z,1000.56
2017-07-09T04:07:10.919Z,1000.55
2017-07-09T04:08:10.960Z,1000.6
2017-07-09T04:09:11.002Z,1000.64
2017-07-09T04:10:11.042Z,1000.62
2017-07-09T04:11:11.081Z,1000.63
2017-07-09T04:12:11.121Z,1000.62
2017-07-09T04:13:11.162Z,1000.66
2017-07-09T04:14:11.203Z,1000.66
2017-07-09T04:15:11.243Z,1000.65
2017-07-09T04:16:11.283Z,1000.67
2017-07-09T04:17:11.326Z,1000.66
2017-07-09T04:18:11.366Z,1000.71
2017-07-09T04:19:11.405Z,1000.74
2017-07-09T04:20:11.446Z,1000.69
2017-07-09T04:21:11.486Z,1000.79
2017-07-09T04:22:11.525Z,1000.78
2017-07-09T04:23:11.567Z,1000.82
2017-07-09T04:24:11.608Z,1000.82
2017-07-09T04:25:11.649Z,1000.83
2017-07-09T04:26:11.694Z,1000.85
2017-07-09T04:27:11.728Z,1000.79
2017-07-09T04:28:11.769Z,1000.78
2017-07-09T04:29:11.810Z,1000.77
2017-07-09T04:30:11.851Z,1000.74
2017-07-09T04:31:11.891Z,1000.72
2017-07-09T04:32:11.932Z,1000.75
2017-07-09T04:33:11.972Z,1000.76
2017-07-09T04:34:12.013Z,1000.77
2017-07-09T04:35:12.052Z,1000.79
2017-07-09T04:36:12.094Z,1000.83
2017-07-09T04:37:12.131Z,1000.84
2017-07-09T04:38:12.173Z,1000.84
2017-07-09T04:39:12.214Z,1000.82
2017-07-09T04:40:12.254Z,1000.84
2017-07-09T04:41:12.294Z,1000.81
2017-07-09T04:42:12.335Z,1000.8
2017-07-09T04:43:12.375Z,1000.82
2017-07-09T04:44:12.415Z,1000.83
2017-07-09T04:45:12.455Z,1000.8
2017-07-09T04:46:12.496Z,1000.85
2017-07-09T04:47:12.537Z,1000.84
2017-07-09T04:48:12.580Z,1000.86
2017-07-09T04:49:12.618Z,1000.86
2017-07-09T04:50:12.658Z,1000.87
2017-07-09T04:51:12.697Z,1000.86
2017-07-09T04:52:12.737Z,1000.86
2017-07-09T04:53:12.779Z,1000.82
2017-07-09T04:54:12.819Z,1000.83
2017-07-09T04:55:12.860Z,1000.77
2017-07-09T04:56:12.900Z,1000.74
2017-07-09T04:57:12.938Z,1000.68
2017-07-09T04:58:12.979Z,1000.68
2017-07-09T04:59:13.020Z,1000.72
2017-07-09T05:00:13.061Z,1000.72
2017-07-09T05:01:13.101Z,1000.74
2017-07-09T05:02:13.141Z,1000.72
2017-07-09T05:03:13.182Z,1000.72
2017-07-09T05:04:13.221Z,1000.71
2017-07-09T05:05:13.262Z,1000.74
2017-07-09T05:06:13.302Z,1000.69
2017-07-09T05:07:13.343Z,1000.71
2017-07-09T05:08:13.385Z,1000.71
2017-07-09T05:09:13.423Z,1000.63
2017-07-09T05:10:13.463Z,1000.69
2017-07-09T05:11:13.504Z,1000.66
2017-07-09T05:12:13.545Z,1000.63
2017-07-09T05:13:13.584Z,1000.65
2017-07-09T05:14:13.625Z,1000.61
2017-07-09T05:15:13.666Z,1000.6
2017-07-09T05:16:13.707Z,1000.59
2017-07-09T05:17:13.744Z,1000.55
2017-07-09T05:18:13.787Z,1000.53
2017-07-09T05:19:13.827Z,1000.49
2017-07-09T05:20:13.867Z,1000.45
2017-07-09T05:21:13.908Z,1000.44
2017-07-09T05:22:13.949Z,1000.49
2017-07-09T05:23:13.988Z,1000.49
2017-07-09T05:24:14.027Z,1000.49
2017-07-09T05:25:14.067Z,1000.46
2017-07-09T05:26:14.110Z,1000.45
2017-07-09T05:27:14.152Z,1000.43
2017-07-09T05:28:14.189Z,1000.46
2017-07-09T05:29:14.232Z,1000.45
2017-07-09T05:30:14.272Z,1000.5
2017-07-09T05:31:14.312Z,1000.51
2017-07-09T05:32:14.353Z,1000.53
2017-07-09T05:33:14.392Z,1000.51
2017-07-09T05:34:14.433Z,1000.55
2017-07-09T05:35:14.473Z,1000.53
2017-07-09T05:36:14.513Z,1000.5
2017-07-09T05:37:14.555Z,1000.56
2017-07-09T05:38:14.594Z,1000.53
2017-07-09T05:39:14.638Z,1000.51
2017-07-09T05:40:14.675Z,1000.5
2017-07-09T05:41:14.719Z,1000.5
2017-07-09T05:42:14.756Z,1000.51
2017-07-09T05:43:14.797Z,1000.53
2017-07-09T05:44:14.837Z,1000.56
2017-07-09T05:45:14.877Z,1000.61
2017-07-09T05:46:14.917Z,1000.57
2017-07-09T05:47:14.958Z,1000.59
2017-07-09T05:48:14.999Z,1000.61
2017-07-09T05:49:15.043Z,1000.6
2017-07-09T05:50:15.079Z,1000.59
2017-07-09T05:51:15.121Z,1000.62
2017-07-09T05:52:15.160Z,1000.58
2017-07-09T05:53:15.203Z,1000.57
2017-07-09T05:54:15.243Z,1000.58
2017-07-09T05:55:15.281Z,1000.62
2017-07-09T05:56:15.324Z,1000.61
2017-07-09T05:57:15.364Z,1000.62
2017-07-09T05:58:15.403Z,1000.63
2017-07-09T05:59:15.444Z,1000.63
2017-07-09T06:00:15.488Z,1000.58
2017-07-09T06:01:15.530Z,1000.62
2017-07-09T06:02:15.567Z,1000.64
2017-07-09T06:03:15.608Z,1000.67
2017-07-09T06:04:15.649Z,1000.66
2017-07-09T06:05:15.689Z,1000.65
2017-07-09T06:06:15.731Z,1000.66
2017-07-09T06:07:15.774Z,1000.65
2017-07-09T06:08:15.812Z,1000.74
2017-07-09T06:09:15.855Z,1000.68
2017-07-09T06:10:15.898Z,1000.67
2017-07-09T06:11:15.938Z,1000.66
2017-07-09T06:12:15.980Z,1000.7
2017-07-09T06:13:16.023Z,1000.7
2017-07-09T06:14:16.064Z,1000.74
2017-07-09T06:15:16.105Z,1000.75
2017-07-09T06:16:16.147Z,1000.73
2017-07-09T06:17:16.191Z,1000.74
2017-07-09T06:18:16.232Z,1000.71
2017-07-09T06:19:16.274Z,1000.69
2017-07-09T06:20:16.316Z,1000.75
2017-07-09T06:21:16.357Z,1000.73
2017-07-09T06:22:16.399Z,1000.76
2017-07-09T06:23:16.445Z,1000.72
2017-07-09T06:24:16.483Z,1000.71
2017-07-09T06:25:16.524Z,1000.64
2017-07-09T06:26:16.565Z,1000.64
2017-07-09T06:27:16.608Z,1000.63
2017-07-09T06:28:16.650Z,1000.64
2017-07-09T06:29:16.690Z,1000.64
2017-07-09T06:30:16.731Z,1000.66
2017-07-09T06:31:16.774Z,1000.7
2017-07-09T06:32:16.815Z,1000.69
2017-07-09T06:33:16.858Z,1000.72
2017-07-09T06:34:16.897Z,1000.72
2017-07-09T06:35:16.940Z,1000.73
2017-07-09T06:36:16.982Z,1000.77
2017-07-09T06:37:17.023Z,1000.75
2017-07-09T06:38:17.063Z,1000.73
2017-07-09T06:39:17.104Z,1000.74
2017-07-09T06:40:17.147Z,1000.71
2017-07-09T06:41:17.187Z,1000.7
2017-07-09T06:42:17.230Z,1000.72
2017-07-09T06:43:17.271Z,1000.73
2017-07-09T06:44:17.313Z,1000.7
2017-07-09T06:45:17.353Z,1000.66
2017-07-09T06:46:17.395Z,1000.71
2017-07-09T06:47:17.436Z,1000.67
2017-07-09T06:48:17.477Z,1000.63
2017-07-09T06:49:17.518Z,1000.62
2017-07-09T06:50:17.560Z,1000.64
2017-07-09T06:51:17.602Z,1000.69
2017-07-09T06:52:17.642Z,1000.71
2017-07-09T06:53:17.684Z,1000.75
2017-07-09T06:54:17.728Z,1000.76
2017-07-09T06:55:17.770Z,1000.8
2017-07-09T06:56:17.812Z,1000.71
2017-07-09T06:57:17.855Z,1000.74
2017-07-09T06:58:17.898Z,1000.77
2017-07-09T06:59:17.944Z,1000.78
2017-07-09T07:00:17.984Z,1000.79
2017-07-09T07:01:18.033Z,1000.77
2017-07-09T07:02:18.071Z,1000.75
2017-07-09T07:03:18.115Z,1000.76
2017-07-09T07:04:18.157Z,1000.76
2017-07-09T07:05:18.200Z,1000.79
2017-07-09T07:06:18.245Z,1000.79
2017-07-09T07:07:18.286Z,1000.76
2017-07-09T07:08:18.329Z,1000.79
2017-07-09T07:09:18.372Z,1000.79
2017-07-09T07:10:18.414Z,1000.75
2017-07-09T07:11:18.457Z,1000.72
2017-07-09T07:12:18.501Z,1000.68
2017-07-09T07:13:18.544Z,1000.69
2017-07-09T07:14:18.586Z,1000.74
2017-07-09T07:15:18.628Z,1000.71
2017-07-09T07:16:18.671Z,1000.73
2017-07-09T07:17:18.713Z,1000.73
2017-07-09T07:18:18.755Z,1000.7
2017-07-09T07:19:18.797Z,1000.74
2017-07-09T07:20:18.839Z,1000.71
2017-07-09T07:21:18.883Z,1000.74
2017-07-09T07:22:18.924Z,1000.71
2017-07-09T07:23:18.968Z,1000.69
2017-07-09T07:24:19.008Z,1000.64
2017-07-09T07:25:19.050Z,1000.6
2017-07-09T07:26:19.095Z,1000.62
2017-07-09T07:27:19.136Z,1000.77
2017-07-09T07:28:19.179Z,1000.75
2017-07-09T07:29:19.222Z,1000.7
2017-07-09T07:30:19.264Z,1000.77
2017-07-09T07:31:19.308Z,1000.7
2017-07-09T07:32:19.352Z,1000.78
2017-07-09T07:33:19.396Z,1000.79
2017-07-09T07:34:19.442Z,1000.79
2017-07-09T07:35:19.489Z,1000.79
2017-07-09T07:36:19.535Z,1000.7
2017-07-09T07:37:19.581Z,1000.83
2017-07-09T07:38:19.629Z,1000.79
2017-07-09T07:39:19.682Z,1000.83
2017-07-09T07:40:19.726Z,1000.75
2017-07-09T07:41:19.775Z,1000.63
2017-07-09T07:42:19.825Z,1000.85
2017-07-09T07:43:19.873Z,1000.83
2017-07-09T07:44:19.924Z,1000.79
2017-07-09T07:45:19.975Z,1000.62
2017-07-09T07:46:20.025Z,1000.59
2017-07-09T07:47:20.079Z,1000.6
2017-07-09T07:48:20.126Z,1000.61
2017-07-09T07:49:20.175Z,1000.66
2017-07-09T07:50:20.224Z,1000.68
2017-07-09T07:51:20.273Z,1000.6
2017-07-09T07:52:20.323Z,1000.61
2017-07-09T07:53:20.370Z,1000.63
2017-07-09T07:54:20.420Z,1000.63
2017-07-09T07:55:20.469Z,1000.57
2017-07-09T07:56:20.518Z,1000.74
2017-07-09T07:57:20.567Z,1000.75
2017-07-09T07:58:20.615Z,1000.71
2017-07-09T07:59:20.666Z,1000.63
2017-07-09T08:00:20.714Z,1000.77
2017-07-09T08:01:20.764Z,1000.6
2017-07-09T08:02:20.815Z,1000.55
2017-07-09T08:03:20.865Z,1000.5
2017-07-09T08:04:20.917Z,1000.56
2017-07-09T08:05:20.965Z,1000.59
2017-07-09T08:06:21.016Z,1000.48
2017-07-09T08:07:21.066Z,1000.49
2017-07-09T08:08:21.118Z,1000.62
2017-07-09T08:09:21.168Z,1000.63
2017-07-09T08:10:21.215Z,1000.56
2017-07-09T08:11:21.280Z,1000.63
2017-07-09T08:12:21.318Z,1000.56
2017-07-09T08:13:21.369Z,1000.66
2017-07-09T08:14:21.420Z,1000.65
2017-07-09T08:15:21.473Z,1000.68
2017-07-09T08:16:21.524Z,1000.63
2017-07-09T08:17:21.575Z,1000.59
2017-07-09T08:18:21.630Z,1000.59
2017-07-09T08:19:21.683Z,1000.61
2017-07-09T08:20:21.734Z,1000.7
2017-07-09T08:21:21.789Z,1000.52
2017-07-09T08:22:21.841Z,1000.59
2017-07-09T08:23:21.895Z,1000.55
2017-07-09T08:24:21.949Z,1000.57
2017-07-09T08:25:22.002Z,1000.63
2017-07-09T08:26:22.054Z,1000.62
2017-07-09T08:27:22.110Z,1000.65
2017-07-09T08:28:22.162Z,1000.57
2017-07-09T08:29:22.214Z,1000.66
2017-07-09T08:30:22.269Z,1000.62
2017-07-09T08:31:22.378Z,1000.53
2017-07-09T08:32:22.376Z,1000.75
2017-07-09T08:33:22.428Z,1000.81
2017-07-09T08:34:22.481Z,1000.74
2017-07-09T08:35:22.535Z,1000.77
2017-07-09T08:36:22.589Z,1000.76
2017-07-09T08:37:22.642Z,1000.68
2017-07-09T08:38:22.696Z,1000.72
2017-07-09T08:39:22.753Z,1000.72
2017-07-09T08:40:22.806Z,1000.67
2017-07-09T08:41:22.860Z,1000.69
2017-07-09T08:42:22.926Z,1000.6
2017-07-09T08:43:22.969Z,1000.59
2017-07-09T08:44:23.026Z,1000.74
2017-07-09T08:45:23.079Z,1000.75
2017-07-09T08:46:23.135Z,1000.53
2017-07-09T08:47:23.189Z,1000.66
2017-07-09T08:48:23.247Z,1000.6
2017-07-09T08:49:23.300Z,1000.72
2017-07-09T08:50:23.358Z,1000.57
2017-07-09T08:51:23.413Z,1000.56
2017-07-09T08:52:23.466Z,1000.56
2017-07-09T08:53:23.521Z,1000.59
2017-07-09T08:54:23.578Z,1000.66
2017-07-09T08:55:23.631Z,1000.72
2017-07-09T08:56:23.684Z,1000.84
2017-07-09T08:57:23.739Z,1000.79
2017-07-09T08:58:23.794Z,1000.73
2017-07-09T08:59:23.853Z,1000.64
2017-07-09T09:00:23.905Z,1000.57
2017-07-09T09:01:23.960Z,1000.68
2017-07-09T09:02:24.014Z,1000.67
2017-07-09T09:03:24.070Z,1000.77
2017-07-09T09:04:24.124Z,1000.65
2017-07-09T09:05:24.186Z,1000.57
2017-07-09T09:06:24.235Z,1000.66
2017-07-09T09:07:24.289Z,1000.75
2017-07-09T09:08:24.345Z,1000.74
2017-07-09T09:09:24.401Z,1000.7
2017-07-09T09:10:24.455Z,1000.72
2017-07-09T09:11:24.511Z,1000.59
2017-07-09T09:12:24.567Z,1000.61
2017-07-09T09:13:24.623Z,1000.53
2017-07-09T09:14:24.680Z,1000.6
2017-07-09T09:15:24.736Z,1000.57
2017-07-09T09:16:24.791Z,1000.44
2017-07-09T09:17:24.849Z,1000.54
2017-07-09T09:18:24.903Z,1000.48
2017-07-09T09:19:24.959Z,1000.5
2017-07-09T09:20:25.016Z,1000.64
2017-07-09T09:21:25.071Z,1000.45
2017-07-09T09:22:25.125Z,1000.48
2017-07-09T09:23:25.182Z,1000.47
2017-07-09T09:24:25.240Z,1000.44
2017-07-09T09:25:25.293Z,1000.4
2017-07-09T09:26:25.349Z,1000.39
2017-07-09T09:27:25.403Z,1000.44
2017-07-09T09:28:25.458Z,1000.54
2017-07-09T09:29:25.512Z,1000.46
2017-07-09T09:30:25.567Z,1000.46
2017-07-09T09:31:25.622Z,1000.55
2017-07-09T09:32:25.679Z,1000.44
2017-07-09T09:33:25.732Z,1000.43
2017-07-09T09:34:25.788Z,1000.26
2017-07-09T09:35:25.843Z,1000.3
2017-07-09T09:36:25.898Z,1000.41
2017-07-09T09:37:25.953Z,1000.4
2017-07-09T09:38:26.008Z,1000.33
2017-07-09T09:39:26.066Z,1000.5
2017-07-09T09:40:26.118Z,1000.47
2017-07-09T09:41:26.174Z,1000.23
2017-07-09T09:42:26.227Z,1000.3
2017-07-09T09:43:26.285Z,1000.33
2017-07-09T09:44:26.339Z,1000.32
2017-07-09T09:45:26.395Z,1000.39
2017-07-09T09:46:26.450Z,1000.29
2017-07-09T09:47:26.506Z,1000.29
2017-07-09T09:48:26.563Z,1000.33
2017-07-09T09:49:26.617Z,1000.36
2017-07-09T09:50:26.675Z,1000.32
2017-07-09T09:51:26.730Z,1000.25
2017-07-09T09:52:26.785Z,1000.24
2017-07-09T09:53:26.843Z,1000.25
2017-07-09T09:54:26.901Z,1000.25
2017-07-09T09:55:26.958Z,1000.25
2017-07-09T09:56:27.014Z,1000.31
2017-07-09T09:57:27.073Z,1000.29
2017-07-09T09:58:27.127Z,1000.27
2017-07-09T09:59:27.186Z,1000.27
2017-07-09T10:00:27.244Z,1000.27
2017-07-09T10:01:27.300Z,1000.26
2017-07-09T10:02:27.358Z,1000.27
2017-07-09T10:03:27.416Z,1000.24
2017-07-09T10:04:27.476Z,1000.26
2017-07-09T10:05:27.534Z,1000.24
2017-07-09T10:06:27.590Z,1000.23
2017-07-09T10:07:27.650Z,1000.28
2017-07-09T10:08:27.708Z,1000.26
2017-07-09T10:09:27.766Z,1000.24
2017-07-09T10:10:27.826Z,1000.2
2017-07-09T10:11:27.883Z,1000.2
2017-07-09T10:12:27.944Z,1000.21
2017-07-09T10:13:28.001Z,1000.21
2017-07-09T10:14:28.061Z,1000.21
2017-07-09T10:15:28.120Z,1000.22
2017-07-09T10:16:28.180Z,1000.22
2017-07-09T10:17:28.236Z,1000.13
2017-07-09T10:18:28.297Z,1000.1
2017-07-09T10:19:28.365Z,1000.08
2017-07-09T10:20:28.413Z,1000.1
2017-07-09T10:21:28.472Z,1000.09
2017-07-09T10:22:28.531Z,1000.11
2017-07-09T10:23:28.590Z,1000.08
2017-07-09T10:24:28.647Z,1000.06
2017-07-09T10:25:28.707Z,1000.06
2017-07-09T10:26:28.767Z,1000.1
2017-07-09T10:27:28.825Z,1000.09
2017-07-09T10:28:28.884Z,1000.06
2017-07-09T10:29:28.942Z,1000.08
2017-07-09T10:30:29.002Z,999.99
2017-07-09T10:31:29.059Z,1000.05
2017-07-09T10:32:29.120Z,1000.11
2017-07-09T10:33:29.178Z,1000.07
2017-07-09T10:34:29.238Z,1000.11
2017-07-09T10:35:29.294Z,1000.04
2017-07-09T10:36:29.353Z,999.95
2017-07-09T10:37:29.414Z,999.92
2017-07-09T10:38:29.473Z,999.93
2017-07-09T10:39:29.528Z,999.89
2017-07-09T10:40:29.586Z,999.9
2017-07-09T10:41:29.643Z,999.86
2017-07-09T10:42:29.702Z,999.85
2017-07-09T10:43:29.758Z,999.83
2017-07-09T10:44:29.816Z,999.94
2017-07-09T10:45:29.873Z,999.88
2017-07-09T10:46:29.928Z,999.81
2017-07-09T10:47:29.985Z,999.8
2017-07-09T10:48:30.042Z,999.77
2017-07-09T10:49:30.097Z,999.78
2017-07-09T10:50:30.154Z,999.84
2017-07-09T10:51:30.210Z,999.8
2017-07-09T10:52:30.266Z,999.88
2017-07-09T10:53:30.319Z,999.85
2017-07-09T10:54:30.376Z,999.79
2017-07-09T10:55:30.432Z,999.8
2017-07-09T10:56:30.486Z,999.73
2017-07-09T10:57:30.543Z,999.84
2017-07-09T10:58:30.597Z,999.61
2017-07-09T10:59:30.654Z,999.59
2017-07-09T11:00:30.708Z,999.6
2017-07-09T11:01:30.764Z,999.6
2017-07-09T11:02:30.822Z,999.67
2017-07-09T11:03:30.875Z,999.63
2017-07-09T11:04:30.933Z,999.42
2017-07-09T11:05:30.986Z,999.49
2017-07-09T11:06:31.041Z,999.54
2017-07-09T11:07:31.094Z,999.51
2017-07-09T11:08:31.152Z,999.45
2017-07-09T11:09:31.202Z,999.56
2017-07-09T11:10:31.257Z,999.55
2017-07-09T11:11:31.311Z,999.64
2017-07-09T11:12:31.368Z,999.56
2017-07-09T11:13:31.420Z,999.52
2017-07-09T11:14:31.472Z,999.5
2017-07-09T11:15:31.524Z,999.45
2017-07-09T11:16:31.579Z,999.41
2017-07-09T11:17:31.631Z,999.41
2017-07-09T11:18:31.684Z,999.36
2017-07-09T11:19:31.736Z,999.31
2017-07-09T11:20:31.787Z,999.35
2017-07-09T11:21:31.839Z,999.33
2017-07-09T11:22:31.889Z,999.33
2017-07-09T11:23:31.941Z,999.28
2017-07-09T11:24:31.991Z,999.23
2017-07-09T11:25:32.043Z,999.26
2017-07-09T11:26:32.093Z,999.23
2017-07-09T11:27:32.143Z,999.22
2017-07-09T11:28:32.195Z,999.22
2017-07-09T11:29:32.265Z,999.2
2017-07-09T11:30:32.308Z,999.19
2017-07-09T11:31:32.358Z,999.18
2017-07-09T11:32:32.393Z,999.16
2017-07-09T11:33:32.441Z,999.14
2017-07-09T11:34:32.491Z,999.14
2017-07-09T11:35:32.541Z,999.06
2017-07-09T11:36:32.591Z,999.04
2017-07-09T11:37:32.638Z,999.01
2017-07-09T11:38:32.688Z,999.01
2017-07-09T11:39:32.736Z,999.02
2017-07-09T11:40:32.787Z,999.02
2017-07-09T11:41:32.833Z,999.02
2017-07-09T11:42:32.883Z,999
2017-07-09T11:43:32.929Z,999.04
2017-07-09T11:44:32.978Z,998.98
2017-07-09T11:45:33.027Z,998.99
2017-07-09T11:46:33.076Z,999.01
2017-07-09T11:47:33.124Z,999.01
2017-07-09T11:48:33.172Z,999
2017-07-09T11:49:33.219Z,999
2017-07-09T11:50:33.267Z,998.96
2017-07-09T11:51:33.315Z,998.97
2017-07-09T11:52:33.364Z,998.92
2017-07-09T11:53:33.411Z,998.91
2017-07-09T11:54:33.463Z,998.91
2017-07-09T11:55:33.506Z,998.93
2017-07-09T11:56:33.555Z,998.95
2017-07-09T11:57:33.602Z,998.9
2017-07-09T11:58:33.651Z,998.89
2017-07-09T11:59:33.697Z,998.89
2017-07-09T12:00:33.747Z,998.88
2017-07-09T12:01:33.794Z,998.88
2017-07-09T12:02:33.842Z,998.83
2017-07-09T12:03:33.888Z,998.82
2017-07-09T12:04:33.937Z,998.82
2017-07-09T12:05:33.984Z,998.79
2017-07-09T12:06:34.031Z,998.82
2017-07-09T12:07:34.080Z,998.8
2017-07-09T12:08:34.127Z,998.85
2017-07-09T12:09:34.175Z,998.8
2017-07-09T12:10:34.222Z,998.84
2017-07-09T12:11:34.269Z,998.83